sensor_id;sensor_type;location;lat;lon;timestamp;P1;durP1;ratioP1;P2;durP2;ratioP2
62058;SDS011;48017;51.064;7.014;2022-07-22T00:01:45;13.00;;;6.90;;
62058;SDS011;48017;51.064;7.014;2022-07-22T00:04:10;11.85;;;6.78;;
62058;SDS011;48017;51.064;7.014;2022-07-22T00:06:35;14.85;;;7.20;;
62058;SDS011;48017;51.064;7.014;2022-07-22T00:09:01;13.98;;;7.40;;
62058;SDS011;48017;51.064;7.014;2022-07-22T00:11:27;9.77;;;7.35;;
62058;SDS011;48017;51.064;7.014;2022-07-22T00:13:52;16.13;;;7.30;;
62058;SDS011;48017;51.064;7.014;2022-07-22T00:16:17;12.38;;;7.28;;
62058;SDS011;48017;51.064;7.014;2022-07-22T00:18:43;11.93;;;6.13;;
62058;SDS011;48017;51.064;7.014;2022-07-22T00:21:08;10.68;;;6.15;;
62058;SDS011;48017;51.064;7.014;2022-07-22T00:23:33;11.10;;;5.38;;
62058;SDS011;48017;51.064;7.014;2022-07-22T00:25:59;12.15;;;5.43;;
62058;SDS011;48017;51.064;7.014;2022-07-22T00:28:24;7.88;;;5.10;;
62058;SDS011;48017;51.064;7.014;2022-07-22T00:30:50;13.23;;;5.22;;
62058;SDS011;48017;51.064;7.014;2022-07-22T00:33:15;13.07;;;5.18;;
62058;SDS011;48017;51.064;7.014;2022-07-22T00:35:41;8.93;;;4.75;;
62058;SDS011;48017;51.064;7.014;2022-07-22T00:38:06;10.80;;;5.20;;
62058;SDS011;48017;51.064;7.014;2022-07-22T00:40:31;11.77;;;5.47;;
62058;SDS011;48017;51.064;7.014;2022-07-22T00:42:57;9.50;;;4.75;;
62058;SDS011;48017;51.064;7.014;2022-07-22T00:45:22;9.95;;;5.15;;
62058;SDS011;48017;51.064;7.014;2022-07-22T00:47:47;10.15;;;4.80;;
62058;SDS011;48017;51.064;7.014;2022-07-22T00:50:13;9.95;;;5.20;;
62058;SDS011;48017;51.064;7.014;2022-07-22T00:52:40;10.32;;;4.95;;
62058;SDS011;48017;51.064;7.014;2022-07-22T00:55:06;8.18;;;5.35;;
62058;SDS011;48017;51.064;7.014;2022-07-22T00:57:32;12.93;;;5.60;;
62058;SDS011;48017;51.064;7.014;2022-07-22T00:59:57;16.05;;;5.35;;
62058;SDS011;48017;51.064;7.014;2022-07-22T01:02:23;9.35;;;4.78;;
62058;SDS011;48017;51.064;7.014;2022-07-22T01:04:49;10.93;;;5.15;;
62058;SDS011;48017;51.064;7.014;2022-07-22T01:07:14;9.07;;;5.43;;
62058;SDS011;48017;51.064;7.014;2022-07-22T01:09:44;13.13;;;5.35;;
62058;SDS011;48017;51.064;7.014;2022-07-22T01:12:10;10.40;;;5.18;;
62058;SDS011;48017;51.064;7.014;2022-07-22T01:14:36;16.25;;;5.80;;
62058;SDS011;48017;51.064;7.014;2022-07-22T01:17:02;14.30;;;5.45;;
62058;SDS011;48017;51.064;7.014;2022-07-22T01:19:27;12.07;;;5.85;;
62058;SDS011;48017;51.064;7.014;2022-07-22T01:21:53;21.55;;;6.00;;
62058;SDS011;48017;51.064;7.014;2022-07-22T01:24:18;12.00;;;5.43;;
62058;SDS011;48017;51.064;7.014;2022-07-22T01:26:44;12.32;;;5.63;;
62058;SDS011;48017;51.064;7.014;2022-07-22T01:29:10;9.88;;;5.35;;
62058;SDS011;48017;51.064;7.014;2022-07-22T01:31:35;16.48;;;5.18;;
62058;SDS011;48017;51.064;7.014;2022-07-22T01:34:01;12.27;;;5.40;;
62058;SDS011;48017;51.064;7.014;2022-07-22T01:36:26;11.95;;;5.50;;
62058;SDS011;48017;51.064;7.014;2022-07-22T01:38:52;10.60;;;4.70;;
62058;SDS011;48017;51.064;7.014;2022-07-22T01:41:17;10.65;;;4.55;;
62058;SDS011;48017;51.064;7.014;2022-07-22T01:43:43;9.95;;;5.18;;
62058;SDS011;48017;51.064;7.014;2022-07-22T01:46:09;11.23;;;5.45;;
62058;SDS011;48017;51.064;7.014;2022-07-22T01:48:34;7.88;;;4.88;;
62058;SDS011;48017;51.064;7.014;2022-07-22T01:50:59;8.20;;;4.93;;
62058;SDS011;48017;51.064;7.014;2022-07-22T01:53:25;11.50;;;5.75;;
62058;SDS011;48017;51.064;7.014;2022-07-22T01:55:51;7.15;;;4.90;;
62058;SDS011;48017;51.064;7.014;2022-07-22T01:58:16;11.02;;;5.10;;
62058;SDS011;48017;51.064;7.014;2022-07-22T02:00:42;13.90;;;5.97;;
62058;SDS011;48017;51.064;7.014;2022-07-22T02:03:08;11.38;;;5.07;;
62058;SDS011;48017;51.064;7.014;2022-07-22T02:05:35;15.25;;;5.30;;
62058;SDS011;48017;51.064;7.014;2022-07-22T02:08:02;10.27;;;5.72;;
62058;SDS011;48017;51.064;7.014;2022-07-22T02:10:29;9.00;;;5.18;;
62058;SDS011;48017;51.064;7.014;2022-07-22T02:12:56;8.48;;;5.63;;
62058;SDS011;48017;51.064;7.014;2022-07-22T02:15:22;12.10;;;6.45;;
62058;SDS011;48017;51.064;7.014;2022-07-22T02:17:47;10.75;;;5.93;;
62058;SDS011;48017;51.064;7.014;2022-07-22T02:20:12;13.43;;;6.72;;
62058;SDS011;48017;51.064;7.014;2022-07-22T02:22:38;13.15;;;7.80;;
62058;SDS011;48017;51.064;7.014;2022-07-22T02:25:04;10.30;;;7.05;;
62058;SDS011;48017;51.064;7.014;2022-07-22T02:27:29;12.57;;;7.00;;
62058;SDS011;48017;51.064;7.014;2022-07-22T02:29:55;12.35;;;7.72;;
62058;SDS011;48017;51.064;7.014;2022-07-22T02:32:20;8.93;;;6.78;;
62058;SDS011;48017;51.064;7.014;2022-07-22T02:34:46;7.93;;;6.07;;
62058;SDS011;48017;51.064;7.014;2022-07-22T02:37:11;12.90;;;6.85;;
62058;SDS011;48017;51.064;7.014;2022-07-22T02:39:36;12.40;;;7.05;;
62058;SDS011;48017;51.064;7.014;2022-07-22T02:42:02;10.25;;;7.05;;
62058;SDS011;48017;51.064;7.014;2022-07-22T02:44:27;10.82;;;7.75;;
62058;SDS011;48017;51.064;7.014;2022-07-22T02:46:53;12.85;;;7.93;;
62058;SDS011;48017;51.064;7.014;2022-07-22T02:49:18;13.60;;;8.80;;
62058;SDS011;48017;51.064;7.014;2022-07-22T02:51:43;13.27;;;8.40;;
62058;SDS011;48017;51.064;7.014;2022-07-22T02:54:09;13.80;;;8.38;;
62058;SDS011;48017;51.064;7.014;2022-07-22T02:56:34;15.07;;;8.80;;
62058;SDS011;48017;51.064;7.014;2022-07-22T02:58:59;14.85;;;8.68;;
62058;SDS011;48017;51.064;7.014;2022-07-22T03:01:25;16.27;;;8.88;;
62058;SDS011;48017;51.064;7.014;2022-07-22T03:03:50;15.05;;;8.80;;
62058;SDS011;48017;51.064;7.014;2022-07-22T03:06:16;13.57;;;8.32;;
62058;SDS011;48017;51.064;7.014;2022-07-22T03:08:41;17.48;;;8.40;;
62058;SDS011;48017;51.064;7.014;2022-07-22T03:11:07;14.95;;;7.05;;
62058;SDS011;48017;51.064;7.014;2022-07-22T03:13:32;17.38;;;7.80;;
62058;SDS011;48017;51.064;7.014;2022-07-22T03:15:58;16.77;;;9.07;;
62058;SDS011;48017;51.064;7.014;2022-07-22T03:18:23;14.57;;;8.77;;
62058;SDS011;48017;51.064;7.014;2022-07-22T03:20:49;26.27;;;15.10;;
62058;SDS011;48017;51.064;7.014;2022-07-22T03:23:15;25.98;;;14.85;;
62058;SDS011;48017;51.064;7.014;2022-07-22T03:25:40;18.27;;;9.85;;
62058;SDS011;48017;51.064;7.014;2022-07-22T03:28:06;15.60;;;8.77;;
62058;SDS011;48017;51.064;7.014;2022-07-22T03:30:32;14.68;;;8.40;;
62058;SDS011;48017;51.064;7.014;2022-07-22T03:32:57;14.57;;;9.23;;
62058;SDS011;48017;51.064;7.014;2022-07-22T03:35:23;17.17;;;9.30;;
62058;SDS011;48017;51.064;7.014;2022-07-22T03:37:48;15.00;;;10.00;;
62058;SDS011;48017;51.064;7.014;2022-07-22T03:40:14;11.57;;;9.10;;
62058;SDS011;48017;51.064;7.014;2022-07-22T03:42:39;22.88;;;12.80;;
62058;SDS011;48017;51.064;7.014;2022-07-22T03:45:05;15.27;;;9.77;;
62058;SDS011;48017;51.064;7.014;2022-07-22T03:47:31;18.55;;;10.90;;
62058;SDS011;48017;51.064;7.014;2022-07-22T03:49:56;17.60;;;13.02;;
62058;SDS011;48017;51.064;7.014;2022-07-22T03:52:23;17.23;;;11.82;;
62058;SDS011;48017;51.064;7.014;2022-07-22T03:54:49;14.32;;;10.18;;
62058;SDS011;48017;51.064;7.014;2022-07-22T03:57:14;13.23;;;10.27;;
62058;SDS011;48017;51.064;7.014;2022-07-22T03:59:40;14.05;;;9.13;;
62058;SDS011;48017;51.064;7.014;2022-07-22T04:02:05;12.65;;;9.85;;
62058;SDS011;48017;51.064;7.014;2022-07-22T04:04:30;12.35;;;10.00;;
62058;SDS011;48017;51.064;7.014;2022-07-22T04:06:56;12.70;;;9.82;;
62058;SDS011;48017;51.064;7.014;2022-07-22T04:09:21;12.23;;;9.38;;
62058;SDS011;48017;51.064;7.014;2022-07-22T04:11:47;15.10;;;9.93;;
62058;SDS011;48017;51.064;7.014;2022-07-22T04:14:12;15.02;;;9.48;;
62058;SDS011;48017;51.064;7.014;2022-07-22T04:16:38;14.95;;;10.38;;
62058;SDS011;48017;51.064;7.014;2022-07-22T04:19:04;12.82;;;9.18;;
62058;SDS011;48017;51.064;7.014;2022-07-22T04:21:29;15.18;;;11.38;;
62058;SDS011;48017;51.064;7.014;2022-07-22T04:23:55;50.75;;;23.10;;
62058;SDS011;48017;51.064;7.014;2022-07-22T04:26:21;18.65;;;11.57;;
62058;SDS011;48017;51.064;7.014;2022-07-22T04:28:46;14.07;;;10.10;;
62058;SDS011;48017;51.064;7.014;2022-07-22T04:31:12;12.77;;;9.00;;
62058;SDS011;48017;51.064;7.014;2022-07-22T04:33:37;10.60;;;7.90;;
62058;SDS011;48017;51.064;7.014;2022-07-22T04:36:03;10.88;;;8.23;;
62058;SDS011;48017;51.064;7.014;2022-07-22T04:38:28;10.25;;;8.77;;
62058;SDS011;48017;51.064;7.014;2022-07-22T04:40:54;11.88;;;8.90;;
62058;SDS011;48017;51.064;7.014;2022-07-22T04:43:19;13.13;;;9.27;;
62058;SDS011;48017;51.064;7.014;2022-07-22T04:45:45;18.30;;;13.38;;
62058;SDS011;48017;51.064;7.014;2022-07-22T04:48:10;15.23;;;10.40;;
62058;SDS011;48017;51.064;7.014;2022-07-22T04:50:36;14.02;;;9.63;;
62058;SDS011;48017;51.064;7.014;2022-07-22T04:53:02;13.13;;;9.70;;
62058;SDS011;48017;51.064;7.014;2022-07-22T04:55:27;14.00;;;9.60;;
62058;SDS011;48017;51.064;7.014;2022-07-22T04:57:52;14.80;;;11.20;;
62058;SDS011;48017;51.064;7.014;2022-07-22T05:00:18;15.13;;;10.18;;
62058;SDS011;48017;51.064;7.014;2022-07-22T05:02:44;17.13;;;11.05;;
62058;SDS011;48017;51.064;7.014;2022-07-22T05:05:09;15.43;;;11.13;;
62058;SDS011;48017;51.064;7.014;2022-07-22T05:07:35;15.82;;;11.23;;
62058;SDS011;48017;51.064;7.014;2022-07-22T05:10:00;16.23;;;11.70;;
62058;SDS011;48017;51.064;7.014;2022-07-22T05:12:26;16.77;;;12.45;;
62058;SDS011;48017;51.064;7.014;2022-07-22T05:14:51;21.33;;;15.38;;
62058;SDS011;48017;51.064;7.014;2022-07-22T05:17:17;16.40;;;12.20;;
62058;SDS011;48017;51.064;7.014;2022-07-22T05:19:42;21.40;;;13.73;;
62058;SDS011;48017;51.064;7.014;2022-07-22T05:22:07;15.18;;;11.88;;
62058;SDS011;48017;51.064;7.014;2022-07-22T05:24:33;16.23;;;12.35;;
62058;SDS011;48017;51.064;7.014;2022-07-22T05:26:58;17.45;;;12.05;;
62058;SDS011;48017;51.064;7.014;2022-07-22T05:29:24;16.23;;;12.50;;
62058;SDS011;48017;51.064;7.014;2022-07-22T05:31:49;18.42;;;12.38;;
62058;SDS011;48017;51.064;7.014;2022-07-22T05:34:15;15.35;;;10.98;;
62058;SDS011;48017;51.064;7.014;2022-07-22T05:36:40;15.63;;;10.40;;
62058;SDS011;48017;51.064;7.014;2022-07-22T05:39:05;12.70;;;8.68;;
62058;SDS011;48017;51.064;7.014;2022-07-22T05:41:31;9.95;;;7.50;;
62058;SDS011;48017;51.064;7.014;2022-07-22T05:43:56;11.02;;;6.35;;
62058;SDS011;48017;51.064;7.014;2022-07-22T05:46:22;11.43;;;6.43;;
62058;SDS011;48017;51.064;7.014;2022-07-22T05:48:47;9.68;;;5.75;;
62058;SDS011;48017;51.064;7.014;2022-07-22T05:51:13;12.98;;;5.15;;
62058;SDS011;48017;51.064;7.014;2022-07-22T05:53:39;8.52;;;4.82;;
62058;SDS011;48017;51.064;7.014;2022-07-22T05:56:06;9.15;;;4.68;;
62058;SDS011;48017;51.064;7.014;2022-07-22T05:58:32;9.48;;;4.25;;
62058;SDS011;48017;51.064;7.014;2022-07-22T06:00:58;9.07;;;4.10;;
62058;SDS011;48017;51.064;7.014;2022-07-22T06:03:23;8.00;;;3.80;;
62058;SDS011;48017;51.064;7.014;2022-07-22T06:05:49;7.32;;;3.63;;
62058;SDS011;48017;51.064;7.014;2022-07-22T06:08:14;6.65;;;3.35;;
62058;SDS011;48017;51.064;7.014;2022-07-22T06:10:40;6.78;;;4.03;;
62058;SDS011;48017;51.064;7.014;2022-07-22T06:13:05;8.00;;;3.60;;
62058;SDS011;48017;51.064;7.014;2022-07-22T06:15:30;7.70;;;3.70;;
62058;SDS011;48017;51.064;7.014;2022-07-22T06:17:56;10.15;;;4.22;;
62058;SDS011;48017;51.064;7.014;2022-07-22T06:20:21;7.47;;;3.53;;
62058;SDS011;48017;51.064;7.014;2022-07-22T06:22:47;8.70;;;3.65;;
62058;SDS011;48017;51.064;7.014;2022-07-22T06:25:12;6.35;;;3.55;;
62058;SDS011;48017;51.064;7.014;2022-07-22T06:27:38;8.40;;;3.30;;
62058;SDS011;48017;51.064;7.014;2022-07-22T06:30:04;6.22;;;3.25;;
62058;SDS011;48017;51.064;7.014;2022-07-22T06:32:29;7.85;;;3.40;;
62058;SDS011;48017;51.064;7.014;2022-07-22T06:34:55;7.55;;;3.78;;
62058;SDS011;48017;51.064;7.014;2022-07-22T06:37:20;12.00;;;3.92;;
62058;SDS011;48017;51.064;7.014;2022-07-22T06:39:45;7.10;;;3.85;;
62058;SDS011;48017;51.064;7.014;2022-07-22T06:42:13;7.22;;;3.72;;
62058;SDS011;48017;51.064;7.014;2022-07-22T06:44:38;8.48;;;4.10;;
62058;SDS011;48017;51.064;7.014;2022-07-22T06:47:04;11.68;;;4.13;;
62058;SDS011;48017;51.064;7.014;2022-07-22T06:49:29;10.95;;;4.57;;
62058;SDS011;48017;51.064;7.014;2022-07-22T06:51:54;8.43;;;4.68;;
62058;SDS011;48017;51.064;7.014;2022-07-22T06:54:20;8.32;;;4.50;;
62058;SDS011;48017;51.064;7.014;2022-07-22T06:56:45;7.38;;;4.57;;
62058;SDS011;48017;51.064;7.014;2022-07-22T06:59:10;7.47;;;4.63;;
62058;SDS011;48017;51.064;7.014;2022-07-22T07:01:36;11.80;;;6.22;;
62058;SDS011;48017;51.064;7.014;2022-07-22T07:04:01;13.25;;;6.70;;
62058;SDS011;48017;51.064;7.014;2022-07-22T07:06:27;9.65;;;5.32;;
62058;SDS011;48017;51.064;7.014;2022-07-22T07:08:52;11.73;;;6.32;;
62058;SDS011;48017;51.064;7.014;2022-07-22T07:11:18;10.43;;;5.50;;
62058;SDS011;48017;51.064;7.014;2022-07-22T07:13:43;8.77;;;4.65;;
62058;SDS011;48017;51.064;7.014;2022-07-22T07:16:09;9.10;;;5.57;;
62058;SDS011;48017;51.064;7.014;2022-07-22T07:18:35;10.30;;;5.90;;
62058;SDS011;48017;51.064;7.014;2022-07-22T07:21:00;23.83;;;12.50;;
62058;SDS011;48017;51.064;7.014;2022-07-22T07:23:26;13.80;;;6.57;;
62058;SDS011;48017;51.064;7.014;2022-07-22T07:25:51;8.15;;;5.65;;
62058;SDS011;48017;51.064;7.014;2022-07-22T07:28:17;9.45;;;6.05;;
62058;SDS011;48017;51.064;7.014;2022-07-22T07:30:42;11.55;;;5.93;;
62058;SDS011;48017;51.064;7.014;2022-07-22T07:33:08;11.35;;;5.90;;
62058;SDS011;48017;51.064;7.014;2022-07-22T07:35:34;9.35;;;6.10;;
62058;SDS011;48017;51.064;7.014;2022-07-22T07:37:59;9.13;;;5.75;;
62058;SDS011;48017;51.064;7.014;2022-07-22T07:40:25;10.80;;;6.40;;
62058;SDS011;48017;51.064;7.014;2022-07-22T07:42:50;10.07;;;6.28;;
62058;SDS011;48017;51.064;7.014;2022-07-22T07:45:16;10.15;;;6.40;;
62058;SDS011;48017;51.064;7.014;2022-07-22T07:47:41;11.23;;;6.60;;
62058;SDS011;48017;51.064;7.014;2022-07-22T07:50:07;11.35;;;6.65;;
62058;SDS011;48017;51.064;7.014;2022-07-22T07:52:39;11.40;;;6.78;;
62058;SDS011;48017;51.064;7.014;2022-07-22T07:55:05;10.95;;;6.90;;
62058;SDS011;48017;51.064;7.014;2022-07-22T07:57:32;11.23;;;6.65;;
62058;SDS011;48017;51.064;7.014;2022-07-22T07:59:57;10.63;;;6.43;;
62058;SDS011;48017;51.064;7.014;2022-07-22T08:02:23;14.82;;;6.80;;
62058;SDS011;48017;51.064;7.014;2022-07-22T08:04:48;10.30;;;6.97;;
62058;SDS011;48017;51.064;7.014;2022-07-22T08:07:14;9.65;;;7.10;;
62058;SDS011;48017;51.064;7.014;2022-07-22T08:09:39;8.77;;;6.85;;
62058;SDS011;48017;51.064;7.014;2022-07-22T08:12:05;9.23;;;7.30;;
62058;SDS011;48017;51.064;7.014;2022-07-22T08:14:31;10.32;;;6.90;;
62058;SDS011;48017;51.064;7.014;2022-07-22T08:16:57;13.30;;;7.60;;
62058;SDS011;48017;51.064;7.014;2022-07-22T08:19:23;13.20;;;7.35;;
62058;SDS011;48017;51.064;7.014;2022-07-22T08:21:48;10.05;;;7.43;;
62058;SDS011;48017;51.064;7.014;2022-07-22T08:24:14;10.63;;;7.15;;
62058;SDS011;48017;51.064;7.014;2022-07-22T08:26:39;9.70;;;6.45;;
62058;SDS011;48017;51.064;7.014;2022-07-22T08:29:05;8.40;;;7.25;;
62058;SDS011;48017;51.064;7.014;2022-07-22T08:34:00;9.20;;;6.78;;
62058;SDS011;48017;51.064;7.014;2022-07-22T08:36:26;9.48;;;6.97;;
62058;SDS011;48017;51.064;7.014;2022-07-22T08:38:52;9.93;;;6.78;;
62058;SDS011;48017;51.064;7.014;2022-07-22T08:41:18;11.20;;;6.80;;
62058;SDS011;48017;51.064;7.014;2022-07-22T08:43:45;9.73;;;6.65;;
62058;SDS011;48017;51.064;7.014;2022-07-22T08:46:12;10.00;;;6.38;;
62058;SDS011;48017;51.064;7.014;2022-07-22T08:48:38;8.23;;;6.25;;
62058;SDS011;48017;51.064;7.014;2022-07-22T08:51:04;11.52;;;6.22;;
62058;SDS011;48017;51.064;7.014;2022-07-22T08:53:30;10.02;;;6.28;;
62058;SDS011;48017;51.064;7.014;2022-07-22T08:55:55;9.43;;;5.90;;
62058;SDS011;48017;51.064;7.014;2022-07-22T08:58:21;7.85;;;5.65;;
62058;SDS011;48017;51.064;7.014;2022-07-22T09:00:46;8.35;;;5.40;;
62058;SDS011;48017;51.064;7.014;2022-07-22T09:06:15;9.10;;;6.05;;
62058;SDS011;48017;51.064;7.014;2022-07-22T09:11:25;8.82;;;5.70;;
62058;SDS011;48017;51.064;7.014;2022-07-22T09:13:53;7.28;;;5.72;;
62058;SDS011;48017;51.064;7.014;2022-07-22T09:19:03;8.57;;;5.80;;
62058;SDS011;48017;51.064;7.014;2022-07-22T09:21:29;13.45;;;6.47;;
62058;SDS011;48017;51.064;7.014;2022-07-22T09:23:55;8.52;;;5.75;;
62058;SDS011;48017;51.064;7.014;2022-07-22T09:26:30;8.82;;;6.38;;
62058;SDS011;48017;51.064;7.014;2022-07-22T09:29:04;8.82;;;6.10;;
62058;SDS011;48017;51.064;7.014;2022-07-22T09:31:34;10.20;;;6.37;;
62058;SDS011;48017;51.064;7.014;2022-07-22T09:34:02;10.05;;;5.75;;
62058;SDS011;48017;51.064;7.014;2022-07-22T09:36:29;8.77;;;6.13;;
62058;SDS011;48017;51.064;7.014;2022-07-22T09:38:56;9.90;;;6.10;;
62058;SDS011;48017;51.064;7.014;2022-07-22T09:41:22;10.18;;;6.47;;
62058;SDS011;48017;51.064;7.014;2022-07-22T09:43:48;22.10;;;11.70;;
62058;SDS011;48017;51.064;7.014;2022-07-22T09:46:15;17.63;;;9.00;;
62058;SDS011;48017;51.064;7.014;2022-07-22T09:48:40;12.75;;;6.00;;
62058;SDS011;48017;51.064;7.014;2022-07-22T09:51:08;9.40;;;5.20;;
62058;SDS011;48017;51.064;7.014;2022-07-22T09:53:33;7.13;;;4.78;;
62058;SDS011;48017;51.064;7.014;2022-07-22T09:56:00;6.93;;;4.80;;
62058;SDS011;48017;51.064;7.014;2022-07-22T09:58:29;8.68;;;4.60;;
62058;SDS011;48017;51.064;7.014;2022-07-22T10:00:55;10.23;;;5.40;;
62058;SDS011;48017;51.064;7.014;2022-07-22T10:03:26;10.52;;;5.00;;
62058;SDS011;48017;51.064;7.014;2022-07-22T10:05:53;8.40;;;5.07;;
62058;SDS011;48017;51.064;7.014;2022-07-22T10:08:18;9.50;;;4.78;;
62058;SDS011;48017;51.064;7.014;2022-07-22T10:10:44;7.50;;;5.20;;
62058;SDS011;48017;51.064;7.014;2022-07-22T10:13:10;6.20;;;4.60;;
62058;SDS011;48017;51.064;7.014;2022-07-22T10:15:36;6.75;;;4.63;;
62058;SDS011;48017;51.064;7.014;2022-07-22T10:18:13;9.02;;;4.70;;
62058;SDS011;48017;51.064;7.014;2022-07-22T10:20:39;9.50;;;4.60;;
62058;SDS011;48017;51.064;7.014;2022-07-22T10:23:05;8.73;;;6.03;;
62058;SDS011;48017;51.064;7.014;2022-07-22T10:25:48;8.10;;;5.18;;
62058;SDS011;48017;51.064;7.014;2022-07-22T10:28:25;7.87;;;4.70;;
62058;SDS011;48017;51.064;7.014;2022-07-22T10:30:53;9.40;;;6.03;;
62058;SDS011;48017;51.064;7.014;2022-07-22T10:33:39;20.07;;;10.73;;
62058;SDS011;48017;51.064;7.014;2022-07-22T10:36:05;12.98;;;6.05;;
62058;SDS011;48017;51.064;7.014;2022-07-22T10:38:31;8.23;;;4.97;;
62058;SDS011;48017;51.064;7.014;2022-07-22T10:40:58;7.95;;;5.00;;
62058;SDS011;48017;51.064;7.014;2022-07-22T10:43:45;7.55;;;5.38;;
62058;SDS011;48017;51.064;7.014;2022-07-22T10:46:12;7.65;;;5.47;;
62058;SDS011;48017;51.064;7.014;2022-07-22T10:51:05;8.00;;;4.90;;
62058;SDS011;48017;51.064;7.014;2022-07-22T10:56:27;6.35;;;4.68;;
62058;SDS011;48017;51.064;7.014;2022-07-22T11:01:36;8.73;;;4.95;;
62058;SDS011;48017;51.064;7.014;2022-07-22T11:04:15;7.90;;;5.03;;
62058;SDS011;48017;51.064;7.014;2022-07-22T11:06:42;6.13;;;4.93;;
62058;SDS011;48017;51.064;7.014;2022-07-22T11:09:10;10.63;;;5.57;;
62058;SDS011;48017;51.064;7.014;2022-07-22T11:16:54;8.07;;;5.00;;
62058;SDS011;48017;51.064;7.014;2022-07-22T11:19:25;7.57;;;5.40;;
62058;SDS011;48017;51.064;7.014;2022-07-22T11:21:55;8.70;;;5.43;;
62058;SDS011;48017;51.064;7.014;2022-07-22T11:24:23;11.52;;;6.60;;
62058;SDS011;48017;51.064;7.014;2022-07-22T11:26:51;10.57;;;5.68;;
62058;SDS011;48017;51.064;7.014;2022-07-22T11:31:50;7.18;;;5.38;;
62058;SDS011;48017;51.064;7.014;2022-07-22T11:34:16;9.98;;;5.65;;
62058;SDS011;48017;51.064;7.014;2022-07-22T11:36:42;8.10;;;5.78;;
62058;SDS011;48017;51.064;7.014;2022-07-22T11:39:09;9.25;;;5.40;;
62058;SDS011;48017;51.064;7.014;2022-07-22T11:41:36;7.85;;;5.95;;
62058;SDS011;48017;51.064;7.014;2022-07-22T11:44:03;8.07;;;6.03;;
62058;SDS011;48017;51.064;7.014;2022-07-22T11:46:34;10.50;;;6.80;;
62058;SDS011;48017;51.064;7.014;2022-07-22T11:49:01;9.43;;;7.00;;
62058;SDS011;48017;51.064;7.014;2022-07-22T11:51:28;9.27;;;6.43;;
62058;SDS011;48017;51.064;7.014;2022-07-22T11:53:55;8.30;;;6.30;;
62058;SDS011;48017;51.064;7.014;2022-07-22T11:56:21;10.45;;;7.18;;
62058;SDS011;48017;51.064;7.014;2022-07-22T11:58:47;9.23;;;6.43;;
62058;SDS011;48017;51.064;7.014;2022-07-22T12:01:15;9.35;;;6.68;;
62058;SDS011;48017;51.064;7.014;2022-07-22T12:03:47;9.43;;;6.22;;
62058;SDS011;48017;51.064;7.014;2022-07-22T12:06:15;8.30;;;6.10;;
62058;SDS011;48017;51.064;7.014;2022-07-22T12:08:42;11.73;;;7.30;;
62058;SDS011;48017;51.064;7.014;2022-07-22T12:11:10;10.75;;;7.68;;
62058;SDS011;48017;51.064;7.014;2022-07-22T12:13:48;9.88;;;6.85;;
62058;SDS011;48017;51.064;7.014;2022-07-22T12:16:19;8.45;;;6.47;;
62058;SDS011;48017;51.064;7.014;2022-07-22T12:18:53;9.73;;;6.25;;
62058;SDS011;48017;51.064;7.014;2022-07-22T12:21:20;10.27;;;6.10;;
62058;SDS011;48017;51.064;7.014;2022-07-22T12:23:51;8.68;;;6.97;;
62058;SDS011;48017;51.064;7.014;2022-07-22T12:26:17;9.60;;;6.60;;
62058;SDS011;48017;51.064;7.014;2022-07-22T12:28:42;11.55;;;7.18;;
62058;SDS011;48017;51.064;7.014;2022-07-22T12:31:08;8.32;;;6.65;;
62058;SDS011;48017;51.064;7.014;2022-07-22T12:33:33;11.15;;;8.05;;
62058;SDS011;48017;51.064;7.014;2022-07-22T12:38:27;10.48;;;7.57;;
62058;SDS011;48017;51.064;7.014;2022-07-22T12:40:52;10.82;;;7.05;;
62058;SDS011;48017;51.064;7.014;2022-07-22T12:43:21;9.40;;;7.13;;
62058;SDS011;48017;51.064;7.014;2022-07-22T12:45:49;10.90;;;7.20;;
62058;SDS011;48017;51.064;7.014;2022-07-22T12:48:14;12.35;;;6.88;;
62058;SDS011;48017;51.064;7.014;2022-07-22T12:50:41;11.68;;;7.53;;
62058;SDS011;48017;51.064;7.014;2022-07-22T12:53:08;11.10;;;7.82;;
62058;SDS011;48017;51.064;7.014;2022-07-22T12:55:43;23.25;;;12.10;;
62058;SDS011;48017;51.064;7.014;2022-07-22T12:58:13;11.10;;;8.00;;
62058;SDS011;48017;51.064;7.014;2022-07-22T13:00:49;8.68;;;7.25;;
62058;SDS011;48017;51.064;7.014;2022-07-22T13:03:17;9.07;;;6.45;;
62058;SDS011;48017;51.064;7.014;2022-07-22T13:05:50;8.70;;;6.50;;
62058;SDS011;48017;51.064;7.014;2022-07-22T13:08:18;9.82;;;7.05;;
62058;SDS011;48017;51.064;7.014;2022-07-22T13:10:44;8.43;;;7.20;;
62058;SDS011;48017;51.064;7.014;2022-07-22T13:13:09;10.50;;;6.88;;
62058;SDS011;48017;51.064;7.014;2022-07-22T13:15:35;10.68;;;6.72;;
62058;SDS011;48017;51.064;7.014;2022-07-22T13:18:00;8.45;;;6.43;;
62058;SDS011;48017;51.064;7.014;2022-07-22T13:20:26;9.50;;;6.55;;
62058;SDS011;48017;51.064;7.014;2022-07-22T13:22:51;10.43;;;6.78;;
62058;SDS011;48017;51.064;7.014;2022-07-22T13:25:17;9.00;;;6.93;;
62058;SDS011;48017;51.064;7.014;2022-07-22T13:27:42;10.80;;;7.28;;
62058;SDS011;48017;51.064;7.014;2022-07-22T13:30:08;8.73;;;6.80;;
62058;SDS011;48017;51.064;7.014;2022-07-22T13:32:34;11.75;;;7.57;;
62058;SDS011;48017;51.064;7.014;2022-07-22T13:34:59;11.05;;;7.25;;
62058;SDS011;48017;51.064;7.014;2022-07-22T13:37:24;12.55;;;9.57;;
62058;SDS011;48017;51.064;7.014;2022-07-22T13:39:50;12.93;;;8.70;;
62058;SDS011;48017;51.064;7.014;2022-07-22T13:42:16;9.13;;;7.25;;
62058;SDS011;48017;51.064;7.014;2022-07-22T13:44:48;10.75;;;7.00;;
62058;SDS011;48017;51.064;7.014;2022-07-22T13:47:16;11.00;;;8.30;;
62058;SDS011;48017;51.064;7.014;2022-07-22T13:49:41;8.93;;;6.88;;
62058;SDS011;48017;51.064;7.014;2022-07-22T13:52:07;11.40;;;7.53;;
62058;SDS011;48017;51.064;7.014;2022-07-22T13:54:32;9.65;;;7.90;;
62058;SDS011;48017;51.064;7.014;2022-07-22T13:56:59;10.60;;;7.15;;
62058;SDS011;48017;51.064;7.014;2022-07-22T13:59:25;10.73;;;6.10;;
62058;SDS011;48017;51.064;7.014;2022-07-22T14:01:51;10.55;;;6.70;;
62058;SDS011;48017;51.064;7.014;2022-07-22T14:04:17;8.63;;;6.10;;
62058;SDS011;48017;51.064;7.014;2022-07-22T14:06:42;9.65;;;6.45;;
62058;SDS011;48017;51.064;7.014;2022-07-22T14:09:08;9.30;;;7.10;;
62058;SDS011;48017;51.064;7.014;2022-07-22T14:11:33;11.07;;;7.18;;
62058;SDS011;48017;51.064;7.014;2022-07-22T14:13:59;15.00;;;7.53;;
62058;SDS011;48017;51.064;7.014;2022-07-22T14:16:25;11.35;;;7.30;;
62058;SDS011;48017;51.064;7.014;2022-07-22T14:19:03;10.63;;;8.13;;
62058;SDS011;48017;51.064;7.014;2022-07-22T14:21:32;11.65;;;7.55;;
62058;SDS011;48017;51.064;7.014;2022-07-22T14:23:58;10.57;;;7.65;;
62058;SDS011;48017;51.064;7.014;2022-07-22T14:26:24;9.70;;;7.25;;
62058;SDS011;48017;51.064;7.014;2022-07-22T14:28:49;10.98;;;8.45;;
62058;SDS011;48017;51.064;7.014;2022-07-22T14:31:15;11.10;;;8.32;;
62058;SDS011;48017;51.064;7.014;2022-07-22T14:33:40;10.20;;;8.20;;
62058;SDS011;48017;51.064;7.014;2022-07-22T14:36:06;12.27;;;7.47;;
62058;SDS011;48017;51.064;7.014;2022-07-22T14:38:32;12.23;;;8.57;;
62058;SDS011;48017;51.064;7.014;2022-07-22T14:40:57;13.30;;;8.65;;
62058;SDS011;48017;51.064;7.014;2022-07-22T14:43:23;10.38;;;7.85;;
62058;SDS011;48017;51.064;7.014;2022-07-22T14:45:48;9.75;;;7.18;;
62058;SDS011;48017;51.064;7.014;2022-07-22T14:48:14;11.20;;;7.45;;
62058;SDS011;48017;51.064;7.014;2022-07-22T14:50:39;10.02;;;7.25;;
62058;SDS011;48017;51.064;7.014;2022-07-22T14:53:05;9.13;;;7.65;;
62058;SDS011;48017;51.064;7.014;2022-07-22T14:55:31;11.27;;;7.45;;
62058;SDS011;48017;51.064;7.014;2022-07-22T14:57:56;11.70;;;8.07;;
62058;SDS011;48017;51.064;7.014;2022-07-22T15:00:21;13.05;;;8.30;;
62058;SDS011;48017;51.064;7.014;2022-07-22T15:02:47;10.57;;;7.95;;